Terminal Aerodrome Forecast
Issued by NWS

Home | Current Version | Previous Version | Text Only | Print | Product List | Glossary On
Versions: 1 2 3 4 5 6 7 8 9 10 11
000
FTUS46 KHNX 302320
TAFMCE
TAF
KMCE 302320Z 3100/3124 30011KT P6SM SKC
     FM310200 31006KT P6SM SKC
     FM310600 VRB04KT P6SM SKC
     FM311900 32008KT P6SM SKC=

USA.gov is the U.S. government's official web portal to all federal, state and local government web resources and services.